createdAt,value
2022-12-09T00:00:51.172Z,2.67
2022-12-09T00:01:54.284Z,3.97
2022-12-09T00:02:57.330Z,3.20
2022-12-09T00:04:00.821Z,3.33
2022-12-09T00:05:04.415Z,2.70
2022-12-09T00:06:23.265Z,3.33
2022-12-09T00:07:26.085Z,3.25
2022-12-09T00:08:29.203Z,3.60
2022-12-09T00:09:32.176Z,2.53
2022-12-09T00:10:35.139Z,4.10
2022-12-09T00:11:38.028Z,4.70
2022-12-09T00:12:40.887Z,4.78
2022-12-09T00:13:43.914Z,5.75
2022-12-09T00:14:46.654Z,14.07
2022-12-09T00:15:49.630Z,6.47
2022-12-09T00:16:52.781Z,4.82
2022-12-09T00:17:55.664Z,4.45
2022-12-09T00:18:59.090Z,3.90
2022-12-09T00:20:02.207Z,4.12
2022-12-09T00:21:20.067Z,3.15
2022-12-09T00:22:27.854Z,4.85
2022-12-09T00:23:30.700Z,5.20
2022-12-09T00:24:33.905Z,3.33
2022-12-09T00:25:36.921Z,4.40
2022-12-09T00:26:40.888Z,5.00
2022-12-09T00:27:43.704Z,3.72
2022-12-09T00:28:47.032Z,3.30
2022-12-09T00:29:49.915Z,3.53
2022-12-09T00:30:52.893Z,3.72
2022-12-09T00:31:56.040Z,3.05
2022-12-09T00:32:59.224Z,3.45
2022-12-09T00:34:05.208Z,3.67
2022-12-09T00:35:08.698Z,3.20
2022-12-09T00:36:15.016Z,3.30
2022-12-09T00:37:18.583Z,2.78
2022-12-09T00:38:21.458Z,4.20
2022-12-09T00:39:24.408Z,4.43
2022-12-09T00:40:27.352Z,3.10
2022-12-09T00:41:30.983Z,3.35
2022-12-09T00:42:33.993Z,3.42
2022-12-09T00:43:37.513Z,3.62
2022-12-09T00:44:40.476Z,3.80
2022-12-09T00:45:43.488Z,5.70
2022-12-09T00:46:46.431Z,3.10
2022-12-09T00:47:49.908Z,4.32
2022-12-09T00:48:53.013Z,4.97
2022-12-09T00:49:55.884Z,5.30
2022-12-09T00:50:58.893Z,3.47
2022-12-09T00:52:01.733Z,4.37
2022-12-09T00:53:04.472Z,4.57
2022-12-09T00:54:07.774Z,3.67
2022-12-09T00:55:11.186Z,3.20
2022-12-09T00:56:14.561Z,2.80
2022-12-09T00:57:17.699Z,3.25
2022-12-09T00:58:20.910Z,4.18
2022-12-09T00:59:24.080Z,3.60
2022-12-09T01:00:27.009Z,3.12
2022-12-09T01:01:30.468Z,3.55
2022-12-09T01:02:33.881Z,2.87
2022-12-09T01:03:37.068Z,3.58
2022-12-09T01:04:40.711Z,3.33
2022-12-09T01:05:44.870Z,2.97
2022-12-09T01:06:52.183Z,3.42
2022-12-09T01:07:55.363Z,4.12
2022-12-09T01:08:58.687Z,3.35
2022-12-09T01:10:01.914Z,4.22
2022-12-09T01:11:22.455Z,4.05
2022-12-09T01:12:25.280Z,3.47
2022-12-09T01:13:28.022Z,3.03
2022-12-09T01:14:31.034Z,2.87
2022-12-09T01:15:34.300Z,3.40
2022-12-09T01:16:37.677Z,3.12
2022-12-09T01:17:40.945Z,2.70
2022-12-09T01:18:45.197Z,2.90
2022-12-09T01:19:48.245Z,3.28
2022-12-09T01:20:58.890Z,3.87
2022-12-09T01:22:02.042Z,3.58
2022-12-09T01:23:05.287Z,3.00
2022-12-09T01:24:10.847Z,4.53
2022-12-09T01:25:14.099Z,3.10
2022-12-09T01:26:17.286Z,3.65
2022-12-09T01:27:20.537Z,4.75
2022-12-09T01:28:23.673Z,4.12
2022-12-09T01:29:26.541Z,2.78
2022-12-09T01:30:29.561Z,2.67
2022-12-09T01:31:32.558Z,2.92
2022-12-09T01:32:35.714Z,3.55
2022-12-09T01:33:39.404Z,3.08
2022-12-09T01:34:43.042Z,3.03
2022-12-09T01:35:45.939Z,2.83
2022-12-09T01:36:49.007Z,2.87
2022-12-09T01:37:52.006Z,3.30
2022-12-09T01:38:57.661Z,3.10
2022-12-09T01:40:00.659Z,3.08
2022-12-09T01:41:04.251Z,3.75
2022-12-09T01:42:07.513Z,3.35
2022-12-09T01:43:18.659Z,3.25
2022-12-09T01:44:24.324Z,3.30
2022-12-09T01:45:32.814Z,3.20
2022-12-09T01:46:35.778Z,4.05
2022-12-09T01:47:39.124Z,4.03
2022-12-09T01:48:47.239Z,3.45
2022-12-09T01:49:50.478Z,3.70
2022-12-09T01:50:57.643Z,5.00
2022-12-09T01:52:11.608Z,2.87
2022-12-09T01:53:16.320Z,3.85
2022-12-09T01:54:19.372Z,4.00
2022-12-09T01:55:22.763Z,4.03
2022-12-09T01:56:30.386Z,3.83
2022-12-09T01:57:34.014Z,3.65
2022-12-09T01:58:37.327Z,3.28
2022-12-09T01:59:41.375Z,4.05
2022-12-09T02:00:45.200Z,3.10
2022-12-09T02:01:53.284Z,4.10
2022-12-09T02:02:57.282Z,3.53
2022-12-09T02:04:01.157Z,3.87
2022-12-09T02:05:05.973Z,3.85
2022-12-09T02:06:09.726Z,3.08
2022-12-09T02:07:13.374Z,3.80
2022-12-09T02:08:20.198Z,3.47
2022-12-09T02:09:23.381Z,3.62
2022-12-09T02:10:27.519Z,4.05
2022-12-09T02:11:45.613Z,3.83
2022-12-09T02:13:09.458Z,3.90
2022-12-09T02:14:19.650Z,4.12
2022-12-09T02:15:29.881Z,3.08
2022-12-09T02:16:42.188Z,3.10
2022-12-09T02:18:11.388Z,4.37
2022-12-09T02:19:41.897Z,2.85
2022-12-09T02:20:54.135Z,3.10
2022-12-09T02:22:00.707Z,3.60
2022-12-09T02:23:18.323Z,4.60
2022-12-09T02:24:37.933Z,3.67
2022-12-09T02:25:55.635Z,3.33
2022-12-09T02:27:14.599Z,2.67
2022-12-09T02:28:51.683Z,3.87
2022-12-09T02:30:20.623Z,3.55
2022-12-09T02:31:33.128Z,3.00
2022-12-09T02:33:34.085Z,4.40
2022-12-09T02:34:44.849Z,3.87
2022-12-09T02:37:27.000Z,3.37
2022-12-09T02:38:33.591Z,4.15
2022-12-09T02:39:47.179Z,3.03
2022-12-09T02:41:16.692Z,3.67
2022-12-09T02:42:23.467Z,4.05
2022-12-09T02:43:31.679Z,4.62
2022-12-09T02:44:38.195Z,3.90
2022-12-09T02:45:43.415Z,4.57
2022-12-09T02:46:47.319Z,4.85
2022-12-09T02:47:53.948Z,3.65
2022-12-09T02:48:59.642Z,4.62
2022-12-09T02:50:08.824Z,3.00
2022-12-09T02:51:17.149Z,3.65
2022-12-09T02:52:21.986Z,3.50
2022-12-09T02:53:26.622Z,5.00
2022-12-09T02:54:32.055Z,3.40
2022-12-09T02:55:37.491Z,4.90
2022-12-09T02:56:45.861Z,2.47
2022-12-09T02:57:54.064Z,3.28
2022-12-09T02:59:01.485Z,3.65
2022-12-09T03:00:08.635Z,2.87
2022-12-09T03:01:41.460Z,4.12
2022-12-09T03:02:48.420Z,4.10
2022-12-09T03:03:54.340Z,3.08
2022-12-09T03:05:25.098Z,3.25
2022-12-09T03:06:33.628Z,3.60
2022-12-09T03:08:06.211Z,3.20
2022-12-09T03:09:18.505Z,3.33
2022-12-09T03:10:29.804Z,2.92
2022-12-09T03:11:33.759Z,2.90
2022-12-09T03:12:41.318Z,3.62
2022-12-09T03:14:11.324Z,3.97
2022-12-09T03:15:18.093Z,2.65
2022-12-09T03:16:28.296Z,2.67
2022-12-09T03:17:36.399Z,3.40
2022-12-09T03:18:45.822Z,3.78
2022-12-09T03:20:17.353Z,2.67
2022-12-09T03:21:26.186Z,2.62
2022-12-09T03:22:33.227Z,3.17
2022-12-09T03:23:37.529Z,3.85
2022-12-09T03:24:55.104Z,2.65
2022-12-09T03:26:00.465Z,3.15
2022-12-09T03:27:07.872Z,3.47
2022-12-09T03:28:25.011Z,3.42
2022-12-09T03:29:31.030Z,2.92
2022-12-09T03:30:41.108Z,3.17
2022-12-09T03:31:46.748Z,3.22
2022-12-09T03:32:52.457Z,3.72
2022-12-09T03:34:00.699Z,3.80
2022-12-09T03:35:10.047Z,2.92
2022-12-09T03:36:16.987Z,3.12
2022-12-09T03:37:21.870Z,3.62
2022-12-09T03:38:29.373Z,3.37
2022-12-09T03:39:37.579Z,3.03
2022-12-09T03:40:41.994Z,3.40
2022-12-09T03:41:49.415Z,3.47
2022-12-09T03:43:26.094Z,2.78
2022-12-09T03:44:45.247Z,2.67
2022-12-09T03:45:49.085Z,3.37
2022-12-09T03:46:52.690Z,3.83
2022-12-09T03:47:56.388Z,2.58
2022-12-09T03:48:59.956Z,3.75
2022-12-09T03:50:03.494Z,3.47
2022-12-09T03:51:38.215Z,4.00
2022-12-09T03:52:44.907Z,4.30
2022-12-09T03:54:30.948Z,3.58
2022-12-09T03:55:42.672Z,3.72
2022-12-09T03:56:48.736Z,2.83
2022-12-09T03:57:55.383Z,3.53
2022-12-09T03:59:01.811Z,2.35
2022-12-09T04:00:06.498Z,3.00
2022-12-09T04:01:11.393Z,3.87
2022-12-09T04:02:15.792Z,3.50
2022-12-09T04:03:19.799Z,3.50
2022-12-09T04:04:23.575Z,2.30
2022-12-09T04:05:26.491Z,4.45
2022-12-09T04:06:29.469Z,3.12
2022-12-09T04:07:38.660Z,4.18
2022-12-09T04:08:42.598Z,4.12
2022-12-09T04:09:46.291Z,4.78
2022-12-09T04:10:49.410Z,3.72
2022-12-09T04:11:53.079Z,3.53
2022-12-09T04:12:56.402Z,4.40
2022-12-09T04:13:59.690Z,3.20
2022-12-09T04:15:02.788Z,3.17
2022-12-09T04:16:06.604Z,4.18
2022-12-09T04:17:11.996Z,2.97
2022-12-09T04:18:15.470Z,4.03
2022-12-09T04:19:18.836Z,3.20
2022-12-09T04:20:22.045Z,3.75
2022-12-09T04:21:24.973Z,4.35
2022-12-09T04:22:30.129Z,4.18
2022-12-09T04:23:42.949Z,4.12
2022-12-09T04:24:46.596Z,2.42
2022-12-09T04:25:49.913Z,3.97
2022-12-09T04:26:53.225Z,4.28
2022-12-09T04:27:57.609Z,3.30
2022-12-09T04:29:01.246Z,3.05
2022-12-09T04:30:05.836Z,3.00
2022-12-09T04:31:13.766Z,3.72
2022-12-09T04:32:17.130Z,4.15
2022-12-09T04:33:20.494Z,4.18
2022-12-09T04:34:23.877Z,3.15
2022-12-09T04:35:27.797Z,4.82
2022-12-09T04:36:31.798Z,3.95
2022-12-09T04:37:34.938Z,4.28
2022-12-09T04:38:38.509Z,3.45
2022-12-09T04:39:42.032Z,3.35
2022-12-09T04:40:45.466Z,4.60
2022-12-09T04:41:48.517Z,3.90
2022-12-09T04:42:51.438Z,4.47
2022-12-09T04:43:54.800Z,4.00
2022-12-09T04:44:57.959Z,4.43
2022-12-09T04:46:03.477Z,3.58
2022-12-09T04:47:06.527Z,3.53
2022-12-09T04:48:10.093Z,4.43
2022-12-09T04:49:13.166Z,4.55
2022-12-09T04:50:17.297Z,3.90
2022-12-09T04:51:20.320Z,3.60
2022-12-09T04:52:23.451Z,3.92
2022-12-09T04:53:27.941Z,3.30
2022-12-09T04:54:31.252Z,3.10
2022-12-09T04:55:34.318Z,2.60
2022-12-09T04:56:37.480Z,3.85
2022-12-09T04:57:40.654Z,3.50
2022-12-09T04:58:45.143Z,4.07
2022-12-09T04:59:48.441Z,3.95
2022-12-09T05:00:51.595Z,3.72
2022-12-09T05:01:54.818Z,4.18
2022-12-09T05:02:58.174Z,3.85
2022-12-09T05:04:01.524Z,2.80
2022-12-09T05:05:05.633Z,3.15
2022-12-09T05:06:12.745Z,4.53
2022-12-09T05:07:17.194Z,3.72
2022-12-09T05:08:21.162Z,2.92
2022-12-09T05:09:24.660Z,3.22
2022-12-09T05:10:28.184Z,3.67
2022-12-09T05:11:31.541Z,3.92
2022-12-09T05:12:35.023Z,2.67
2022-12-09T05:13:38.162Z,4.35
2022-12-09T05:14:41.651Z,2.90
2022-12-09T05:15:45.090Z,2.75
2022-12-09T05:17:07.606Z,3.10
2022-12-09T05:18:11.256Z,2.58
2022-12-09T05:19:15.106Z,2.83
2022-12-09T05:20:18.841Z,3.28
2022-12-09T05:21:22.509Z,2.58
2022-12-09T05:22:25.652Z,2.67
2022-12-09T05:23:28.901Z,3.22
2022-12-09T05:24:32.364Z,2.60
2022-12-09T05:25:35.583Z,3.83
2022-12-09T05:26:39.449Z,2.60
2022-12-09T05:27:42.504Z,3.40
2022-12-09T05:28:46.351Z,2.28
2022-12-09T05:29:49.423Z,2.75
2022-12-09T05:30:52.596Z,3.25
2022-12-09T05:31:57.554Z,3.53
2022-12-09T05:33:01.385Z,3.30
2022-12-09T05:34:04.672Z,2.83
2022-12-09T05:35:08.683Z,2.00
2022-12-09T05:36:13.776Z,2.80
2022-12-09T05:37:17.196Z,2.55
2022-12-09T05:38:20.323Z,2.03
2022-12-09T05:39:23.408Z,2.80
2022-12-09T05:40:26.533Z,3.17
2022-12-09T05:41:33.809Z,2.65
2022-12-09T05:42:41.417Z,3.58
2022-12-09T05:43:45.292Z,2.58
2022-12-09T05:44:48.803Z,4.07
2022-12-09T05:45:51.827Z,3.58
2022-12-09T05:46:54.959Z,2.70
2022-12-09T05:48:01.606Z,3.17
2022-12-09T05:49:05.952Z,3.08
2022-12-09T05:50:10.657Z,3.75
2022-12-09T05:51:27.144Z,2.72
2022-12-09T05:52:30.290Z,2.92
2022-12-09T05:53:34.553Z,3.62
2022-12-09T05:54:38.164Z,3.55
2022-12-09T05:55:42.161Z,2.92
2022-12-09T05:56:48.332Z,2.60
2022-12-09T05:57:52.188Z,4.03
2022-12-09T05:58:56.457Z,2.90
2022-12-09T06:00:00.092Z,2.60
2022-12-09T06:01:08.143Z,2.85
2022-12-09T06:02:11.122Z,4.00
2022-12-09T06:03:15.410Z,3.47
2022-12-09T06:04:18.753Z,5.18
2022-12-09T06:05:22.078Z,3.42
2022-12-09T06:07:44.022Z,3.45
2022-12-09T06:08:49.560Z,4.25
2022-12-09T06:09:54.028Z,3.42
2022-12-09T06:10:57.432Z,3.37
2022-12-09T06:12:00.683Z,4.30
2022-12-09T06:13:03.721Z,3.80
2022-12-09T06:14:11.593Z,2.67
2022-12-09T06:15:21.265Z,3.17
2022-12-09T06:16:25.086Z,3.65
2022-12-09T06:17:28.489Z,4.15
2022-12-09T06:18:32.197Z,3.20
2022-12-09T06:19:35.855Z,3.83
2022-12-09T06:20:42.606Z,2.55
2022-12-09T06:21:46.102Z,3.03
2022-12-09T06:22:49.151Z,3.47
2022-12-09T06:23:53.009Z,3.33
2022-12-09T06:24:57.360Z,2.17
2022-12-09T06:26:00.852Z,2.87
2022-12-09T06:27:04.142Z,3.92
2022-12-09T06:28:07.459Z,3.20
2022-12-09T06:29:11.090Z,3.40
2022-12-09T06:30:14.960Z,3.75
2022-12-09T06:31:19.001Z,2.45
2022-12-09T06:32:22.584Z,3.10
2022-12-09T06:33:52.873Z,3.55
2022-12-09T06:34:49.426Z,3.87
2022-12-09T06:35:52.791Z,3.75
2022-12-09T06:36:56.002Z,3.75
2022-12-09T06:37:59.264Z,3.65
2022-12-09T06:39:10.014Z,3.45
2022-12-09T06:40:14.147Z,3.35
2022-12-09T06:41:17.969Z,3.33
2022-12-09T06:42:24.379Z,4.30
2022-12-09T06:43:27.743Z,3.90
2022-12-09T06:44:32.044Z,3.37
2022-12-09T06:45:36.589Z,3.95
2022-12-09T06:46:40.642Z,4.12
2022-12-09T06:47:44.366Z,4.35
2022-12-09T06:48:48.081Z,4.12
2022-12-09T06:49:51.646Z,3.90
2022-12-09T06:50:55.006Z,2.67
2022-12-09T06:51:58.267Z,3.92
2022-12-09T06:53:01.413Z,2.60
2022-12-09T06:54:04.668Z,3.22
2022-12-09T06:55:09.263Z,2.72
2022-12-09T06:56:13.791Z,3.17
2022-12-09T06:57:17.212Z,3.35
2022-12-09T06:58:20.436Z,3.37
2022-12-09T06:59:23.606Z,2.72
2022-12-09T07:00:27.512Z,3.62
2022-12-09T07:01:30.868Z,2.25
2022-12-09T07:02:39.004Z,3.42
2022-12-09T07:03:46.997Z,2.17
2022-12-09T07:04:55.458Z,3.28
2022-12-09T07:05:58.758Z,2.65
2022-12-09T07:07:02.294Z,3.03
2022-12-09T07:08:06.148Z,2.85
2022-12-09T07:09:13.083Z,3.30
2022-12-09T07:10:16.838Z,2.78
2022-12-09T07:11:20.162Z,2.53
2022-12-09T07:12:23.375Z,2.33
2022-12-09T07:13:26.480Z,2.78
2022-12-09T07:14:29.635Z,2.08
2022-12-09T07:15:32.879Z,2.55
2022-12-09T07:16:36.978Z,2.53
2022-12-09T07:17:40.830Z,2.58
2022-12-09T07:18:43.999Z,1.80
2022-12-09T07:19:48.267Z,2.42
2022-12-09T07:20:51.289Z,4.03
2022-12-09T07:21:54.483Z,2.65
2022-12-09T07:22:57.517Z,3.05
2022-12-09T07:24:03.726Z,1.90
2022-12-09T07:25:07.640Z,2.60
2022-12-09T07:26:11.931Z,1.98
2022-12-09T07:27:19.630Z,2.72
2022-12-09T07:28:23.353Z,1.80
2022-12-09T07:29:26.620Z,1.90
2022-12-09T07:30:30.786Z,1.98
2022-12-09T07:31:35.520Z,2.28
2022-12-09T07:32:39.244Z,2.25
2022-12-09T07:33:42.385Z,2.67
2022-12-09T07:35:58.949Z,3.33
2022-12-09T07:37:02.518Z,3.22
2022-12-09T07:38:06.179Z,2.15
2022-12-09T07:39:15.456Z,2.30
2022-12-09T07:40:19.072Z,2.30
2022-12-09T07:41:23.620Z,2.20
2022-12-09T07:42:27.621Z,1.98
2022-12-09T07:43:33.007Z,3.35
2022-12-09T07:44:35.925Z,3.03
2022-12-09T07:45:39.483Z,3.15
2022-12-09T07:46:43.028Z,2.40
2022-12-09T07:47:46.734Z,2.20
2022-12-09T07:48:50.341Z,2.30
2022-12-09T07:49:53.486Z,2.08
2022-12-09T07:51:03.464Z,3.05
2022-12-09T07:52:07.035Z,3.12
2022-12-09T07:53:10.597Z,2.25
2022-12-09T07:54:15.446Z,2.58
2022-12-09T07:55:18.580Z,2.45
2022-12-09T07:56:22.611Z,2.97
2022-12-09T07:57:26.135Z,2.17
2022-12-09T07:58:29.917Z,2.80
2022-12-09T07:59:33.023Z,2.17
2022-12-09T08:00:36.583Z,2.30
2022-12-09T08:01:40.812Z,2.97
2022-12-09T08:02:44.334Z,2.22
2022-12-09T08:03:49.042Z,3.65
2022-12-09T08:04:52.864Z,3.05
2022-12-09T08:05:56.725Z,2.85
2022-12-09T08:07:01.682Z,3.03
2022-12-09T08:08:05.377Z,2.45
2022-12-09T08:09:12.319Z,2.72
2022-12-09T08:10:15.646Z,3.05
2022-12-09T08:11:24.516Z,2.47
2022-12-09T08:12:27.822Z,2.22
2022-12-09T08:13:31.087Z,2.33
2022-12-09T08:14:34.180Z,2.78
2022-12-09T08:15:37.177Z,2.92
2022-12-09T08:16:41.953Z,2.28
2022-12-09T08:17:46.430Z,2.53
2022-12-09T08:18:51.400Z,2.33
2022-12-09T08:19:54.871Z,1.83
2022-12-09T08:20:58.781Z,2.33
2022-12-09T08:22:02.293Z,1.80
2022-12-09T08:23:05.589Z,1.50
2022-12-09T08:24:10.413Z,1.58
2022-12-09T08:25:13.707Z,1.52
2022-12-09T08:26:19.404Z,1.37
2022-12-09T08:27:23.268Z,1.87
2022-12-09T08:28:27.646Z,1.98
2022-12-09T08:29:31.305Z,2.08
2022-12-09T08:30:35.002Z,1.60
2022-12-09T08:31:41.665Z,1.58
2022-12-09T08:32:45.641Z,1.73
2022-12-09T08:33:49.111Z,1.62
2022-12-09T08:34:52.532Z,1.35
2022-12-09T08:35:55.881Z,1.87
2022-12-09T08:37:02.233Z,2.30
2022-12-09T08:38:09.672Z,1.90
2022-12-09T08:39:14.179Z,1.52
2022-12-09T08:40:17.384Z,1.83
2022-12-09T08:41:35.954Z,1.60
2022-12-09T08:42:39.447Z,1.75
2022-12-09T08:43:44.359Z,1.98
2022-12-09T08:44:47.727Z,2.22
2022-12-09T08:45:50.956Z,2.15
2022-12-09T08:46:54.035Z,2.03
2022-12-09T08:47:57.952Z,1.80
2022-12-09T08:49:04.808Z,1.75
2022-12-09T08:50:09.455Z,2.33
2022-12-09T08:51:13.226Z,2.00
2022-12-09T08:52:16.343Z,2.60
2022-12-09T08:53:20.392Z,2.00
2022-12-09T08:54:24.049Z,2.53
2022-12-09T08:55:27.888Z,2.37
2022-12-09T08:56:31.437Z,2.15
2022-12-09T08:57:34.506Z,2.60
2022-12-09T08:58:37.579Z,2.03
2022-12-09T08:59:45.203Z,1.77
2022-12-09T09:00:49.005Z,2.58
2022-12-09T09:01:52.453Z,1.98
2022-12-09T09:02:55.840Z,1.95
2022-12-09T09:04:02.707Z,2.08
2022-12-09T09:05:07.174Z,2.17
2022-12-09T09:06:11.307Z,2.17
2022-12-09T09:07:14.866Z,2.05
2022-12-09T09:08:18.363Z,1.55
2022-12-09T09:09:22.299Z,2.12
2022-12-09T09:10:26.682Z,2.05
2022-12-09T09:11:30.010Z,1.75
2022-12-09T09:12:38.996Z,1.95
2022-12-09T09:13:48.773Z,1.77
2022-12-09T09:14:53.485Z,1.45
2022-12-09T09:15:56.447Z,1.92
2022-12-09T09:17:00.059Z,1.65
2022-12-09T09:18:03.150Z,2.08
2022-12-09T09:19:07.008Z,2.45
2022-12-09T09:20:11.193Z,1.77
2022-12-09T09:21:18.326Z,1.65
2022-12-09T09:22:21.635Z,1.60
2022-12-09T09:23:26.215Z,1.92
2022-12-09T09:24:29.533Z,2.37
2022-12-09T09:25:32.590Z,2.35
2022-12-09T09:26:36.277Z,1.62
2022-12-09T09:27:39.669Z,1.80
2022-12-09T09:28:43.854Z,1.95
2022-12-09T09:29:46.953Z,2.22
2022-12-09T09:30:51.235Z,3.25
2022-12-09T09:31:55.407Z,2.40
2022-12-09T09:33:00.061Z,1.90
2022-12-09T09:34:03.332Z,1.67
2022-12-09T09:35:07.202Z,2.15
2022-12-09T09:36:16.289Z,3.55
2022-12-09T09:37:20.253Z,2.72
2022-12-09T09:38:23.177Z,1.95
2022-12-09T09:39:26.485Z,2.15
2022-12-09T09:40:31.088Z,2.20
2022-12-09T09:42:08.231Z,2.33
2022-12-09T09:43:18.123Z,1.60
2022-12-09T09:44:38.182Z,1.77
2022-12-09T09:45:41.730Z,1.58
2022-12-09T09:46:48.143Z,2.00
2022-12-09T09:48:06.570Z,2.17
2022-12-09T09:49:17.296Z,1.20
2022-12-09T09:51:50.568Z,1.73
2022-12-09T09:52:55.268Z,1.92
2022-12-09T09:54:01.255Z,1.58
2022-12-09T09:55:16.814Z,2.53
2022-12-09T09:56:55.244Z,1.40
2022-12-09T09:58:12.419Z,2.00
2022-12-09T09:59:31.014Z,1.98
2022-12-09T10:00:49.241Z,1.62
2022-12-09T10:02:19.388Z,1.92
2022-12-09T10:03:52.111Z,1.33
2022-12-09T10:05:12.079Z,2.08
2022-12-09T10:06:34.351Z,1.73
2022-12-09T10:07:44.158Z,1.48
2022-12-09T10:08:59.570Z,1.50
2022-12-09T10:10:27.305Z,1.87
2022-12-09T10:11:42.989Z,1.95
2022-12-09T10:13:18.528Z,1.95
2022-12-09T10:14:56.161Z,1.62
2022-12-09T10:16:24.272Z,1.83
2022-12-09T10:17:43.253Z,3.08
2022-12-09T10:19:15.547Z,1.60
2022-12-09T10:20:23.291Z,2.25
2022-12-09T10:21:30.123Z,2.08
2022-12-09T10:22:44.142Z,1.58
2022-12-09T10:23:48.918Z,2.45
2022-12-09T10:24:57.168Z,2.33
2022-12-09T10:26:06.814Z,2.35
2022-12-09T10:27:27.194Z,1.67
2022-12-09T10:28:37.177Z,3.22
2022-12-09T10:30:07.119Z,2.00
2022-12-09T10:31:11.967Z,1.85
2022-12-09T10:32:18.899Z,3.20
2022-12-09T10:33:32.570Z,2.10
2022-12-09T10:34:36.023Z,1.75
2022-12-09T10:35:39.824Z,1.73
2022-12-09T10:36:46.030Z,2.45
2022-12-09T10:37:52.635Z,1.55
2022-12-09T10:38:56.121Z,2.75
2022-12-09T10:40:05.797Z,1.62
2022-12-09T10:41:49.437Z,2.10
2022-12-09T10:43:16.044Z,1.73
2022-12-09T10:44:27.562Z,1.87
2022-12-09T10:45:52.540Z,1.92
2022-12-09T10:47:06.197Z,2.05
2022-12-09T10:48:34.458Z,2.12
2022-12-09T10:49:37.990Z,3.15
2022-12-09T10:50:42.220Z,2.70
2022-12-09T10:51:50.245Z,3.08
2022-12-09T10:52:53.392Z,1.95
2022-12-09T10:54:21.736Z,2.22
2022-12-09T10:55:35.017Z,2.47
2022-12-09T10:57:00.123Z,1.77
2022-12-09T10:58:11.737Z,2.20
2022-12-09T10:59:20.347Z,2.00
2022-12-09T11:00:29.650Z,2.28
2022-12-09T11:01:56.791Z,1.50
2022-12-09T11:03:00.666Z,1.60
2022-12-09T11:04:14.246Z,2.30
2022-12-09T11:05:30.281Z,2.60
2022-12-09T11:06:40.702Z,2.12
2022-12-09T11:07:49.292Z,1.70
2022-12-09T11:09:00.419Z,1.65
2022-12-09T11:10:15.605Z,2.00
2022-12-09T11:11:19.865Z,1.62
2022-12-09T11:12:32.124Z,2.12
2022-12-09T11:13:43.410Z,2.20
2022-12-09T11:14:55.523Z,2.42
2022-12-09T11:16:03.867Z,2.33
2022-12-09T11:17:25.317Z,2.53
2022-12-09T11:18:32.468Z,1.80
2022-12-09T11:19:39.879Z,1.37
2022-12-09T11:20:54.393Z,1.73
2022-12-09T11:22:41.881Z,2.65
2022-12-09T11:24:02.538Z,2.75
2022-12-09T11:26:32.333Z,1.87
2022-12-09T11:27:35.609Z,2.65
2022-12-09T11:28:42.702Z,2.33
2022-12-09T11:29:46.172Z,3.35
2022-12-09T11:31:27.245Z,2.30
2022-12-09T11:32:19.652Z,2.40
2022-12-09T11:33:36.899Z,2.25
2022-12-09T11:34:46.978Z,2.15
2022-12-09T11:35:50.111Z,3.03
2022-12-09T11:36:56.939Z,1.85
2022-12-09T11:38:05.010Z,2.37
2022-12-09T11:39:11.205Z,2.35
2022-12-09T11:40:19.162Z,1.65
2022-12-09T11:41:45.434Z,2.15
2022-12-09T11:42:53.516Z,2.83
2022-12-09T11:43:57.480Z,2.72
2022-12-09T11:45:23.145Z,2.22
2022-12-09T11:46:32.572Z,2.08
2022-12-09T11:48:22.536Z,3.03
2022-12-09T11:50:32.619Z,1.85
2022-12-09T11:51:40.607Z,2.28
2022-12-09T11:52:44.572Z,2.30
2022-12-09T11:53:47.877Z,1.65
2022-12-09T11:55:27.877Z,3.00
2022-12-09T11:56:32.904Z,2.17
2022-12-09T11:57:46.576Z,2.42
2022-12-09T11:59:02.564Z,2.03
2022-12-09T12:00:15.917Z,1.85
2022-12-09T12:01:37.002Z,2.70
2022-12-09T12:02:53.553Z,2.72
2022-12-09T12:04:01.836Z,2.62
2022-12-09T12:05:21.691Z,2.22
2022-12-09T12:06:35.117Z,1.75
2022-12-09T12:08:27.868Z,2.62
2022-12-09T12:09:59.522Z,2.47
2022-12-09T12:11:15.002Z,2.50
2022-12-09T12:12:39.154Z,2.22
2022-12-09T12:13:53.150Z,2.08
2022-12-09T12:15:02.465Z,2.90
2022-12-09T12:16:12.363Z,2.40
2022-12-09T12:17:27.895Z,1.93
2022-12-09T12:18:55.237Z,2.22
2022-12-09T12:19:58.259Z,2.45
2022-12-09T12:21:21.009Z,2.25
2022-12-09T12:22:54.298Z,2.67
2022-12-09T12:24:35.546Z,2.00
2022-12-09T12:26:07.267Z,2.10
2022-12-09T12:27:47.727Z,2.42
2022-12-09T12:29:16.416Z,2.12
2022-12-09T12:30:23.620Z,2.80
2022-12-09T12:32:14.775Z,2.33
2022-12-09T12:35:39.016Z,1.85
2022-12-09T12:37:11.947Z,3.00
2022-12-09T12:38:43.848Z,2.25
2022-12-09T12:39:58.548Z,2.67
2022-12-09T12:41:20.380Z,2.20
2022-12-09T12:43:27.640Z,2.10
2022-12-09T12:45:08.114Z,1.92
2022-12-09T12:46:46.007Z,2.03
2022-12-09T12:48:04.687Z,2.20
2022-12-09T12:49:30.546Z,1.58
2022-12-09T12:50:57.405Z,2.00
2022-12-09T12:54:17.963Z,3.10
2022-12-09T12:55:57.613Z,2.65
2022-12-09T12:57:17.504Z,2.45
2022-12-09T12:58:50.476Z,2.65
2022-12-09T13:00:19.698Z,1.77
2022-12-09T13:01:50.387Z,2.17
2022-12-09T13:03:04.436Z,1.95
2022-12-09T13:04:17.363Z,2.05
2022-12-09T13:05:25.403Z,1.75
2022-12-09T13:06:44.496Z,2.10
2022-12-09T13:07:53.771Z,2.65
2022-12-09T13:09:03.570Z,2.55
2022-12-09T13:10:31.782Z,1.48
2022-12-09T13:12:03.243Z,2.15
2022-12-09T13:13:17.496Z,2.35
2022-12-09T13:14:32.240Z,3.37
2022-12-09T13:15:48.787Z,2.53
2022-12-09T13:16:53.122Z,1.90
2022-12-09T13:17:56.358Z,1.90
2022-12-09T13:19:28.724Z,2.47
2022-12-09T13:20:41.248Z,2.20
2022-12-09T13:21:46.067Z,2.65
2022-12-09T13:22:58.580Z,2.47
2022-12-09T13:24:21.784Z,2.20
2022-12-09T13:25:49.481Z,2.12
2022-12-09T13:27:27.897Z,2.08
2022-12-09T13:28:38.431Z,2.15
2022-12-09T13:29:57.996Z,1.73
2022-12-09T13:31:09.798Z,2.80
2022-12-09T13:32:32.078Z,2.87
2022-12-09T13:33:41.971Z,2.62
2022-12-09T13:34:51.650Z,2.37
2022-12-09T13:36:15.765Z,3.95
2022-12-09T13:37:52.695Z,2.28
2022-12-09T13:38:55.748Z,1.67
2022-12-09T13:39:59.952Z,2.05
2022-12-09T13:41:27.452Z,2.47
2022-12-09T13:42:48.869Z,2.12
2022-12-09T13:43:55.405Z,2.10
2022-12-09T13:45:06.578Z,1.55
2022-12-09T13:46:09.447Z,2.08
2022-12-09T13:47:35.129Z,1.73
2022-12-09T13:48:44.580Z,2.12
2022-12-09T13:50:01.081Z,2.15
2022-12-09T13:51:07.527Z,2.10
2022-12-09T13:52:10.488Z,2.33
2022-12-09T13:53:19.390Z,2.05
2022-12-09T13:54:33.737Z,1.70
2022-12-09T13:55:56.671Z,1.65
2022-12-09T13:57:37.351Z,2.67
2022-12-09T13:58:59.039Z,1.70
2022-12-09T14:00:07.814Z,1.80
2022-12-09T14:01:13.139Z,2.85
2022-12-09T14:02:40.489Z,2.40
2022-12-09T14:04:01.726Z,1.52
2022-12-09T14:05:19.481Z,2.67
2022-12-09T14:06:30.580Z,2.00
2022-12-09T14:07:42.236Z,1.73
2022-12-09T14:08:53.739Z,1.70
2022-12-09T14:11:55.198Z,1.20
2022-12-09T14:12:58.008Z,2.00
2022-12-09T14:14:27.192Z,1.55
2022-12-09T14:15:36.346Z,1.37
2022-12-09T14:16:39.238Z,1.70
2022-12-09T14:17:46.459Z,1.87
2022-12-09T14:18:52.761Z,1.95
2022-12-09T14:20:02.451Z,1.50
2022-12-09T14:21:31.728Z,1.95
2022-12-09T14:22:36.976Z,2.42
2022-12-09T14:23:39.986Z,2.12
2022-12-09T14:24:47.538Z,2.15
2022-12-09T14:25:59.818Z,2.97
2022-12-09T14:27:06.052Z,1.95
2022-12-09T14:28:21.334Z,1.85
2022-12-09T14:29:56.155Z,1.87
2022-12-09T14:31:06.507Z,2.12
2022-12-09T14:32:32.841Z,2.03
2022-12-09T14:33:44.432Z,1.62
2022-12-09T14:35:02.823Z,1.92
2022-12-09T14:36:27.617Z,1.58
2022-12-09T14:37:38.126Z,1.50
2022-12-09T14:39:22.912Z,1.70
2022-12-09T14:40:31.840Z,1.98
2022-12-09T14:41:40.729Z,2.12
2022-12-09T14:43:11.579Z,2.12
2022-12-09T14:44:20.647Z,1.67
2022-12-09T14:45:50.624Z,1.60
2022-12-09T14:47:28.372Z,2.17
2022-12-09T14:48:38.334Z,2.45
2022-12-09T14:51:24.083Z,1.80
2022-12-09T14:52:32.027Z,1.65
2022-12-09T14:53:37.938Z,2.03
2022-12-09T14:54:46.526Z,2.15
2022-12-09T14:55:50.173Z,1.67
2022-12-09T14:57:00.763Z,1.85
2022-12-09T14:58:06.960Z,1.80
2022-12-09T14:59:16.959Z,1.55
2022-12-09T15:00:41.247Z,1.93
2022-12-09T15:01:52.893Z,1.70
2022-12-09T15:03:30.588Z,1.33
2022-12-09T15:04:23.266Z,1.98
2022-12-09T15:05:27.702Z,1.65
2022-12-09T15:06:30.759Z,1.50
2022-12-09T15:07:35.089Z,2.03
2022-12-09T15:08:40.510Z,1.75
2022-12-09T15:09:58.529Z,2.10
2022-12-09T15:11:09.874Z,1.40
2022-12-09T15:12:12.896Z,1.73
2022-12-09T15:13:21.007Z,2.12
2022-12-09T15:14:27.501Z,2.20
2022-12-09T15:15:36.643Z,1.50
2022-12-09T15:16:46.392Z,3.15
2022-12-09T15:18:15.553Z,2.72
2022-12-09T15:21:01.724Z,2.35
2022-12-09T15:22:06.797Z,1.73
2022-12-09T15:23:25.506Z,2.03
2022-12-09T15:24:48.852Z,2.15
2022-12-09T15:25:58.797Z,2.53
2022-12-09T15:27:04.006Z,2.05
2022-12-09T15:28:15.469Z,1.95
2022-12-09T15:29:23.609Z,3.37
2022-12-09T15:30:34.427Z,2.85
2022-12-09T15:31:48.841Z,2.65
2022-12-09T15:32:56.010Z,2.30
2022-12-09T15:34:08.790Z,2.03
2022-12-09T15:35:24.079Z,2.33
2022-12-09T15:36:39.479Z,1.75
2022-12-09T15:37:45.171Z,2.67
2022-12-09T15:39:03.885Z,1.77
2022-12-09T15:40:12.460Z,1.55